Time;durP1;ratioP1;P1;durP2;ratioP2;P2;SDS_P1;SDS_P2;PMS_P1;PMS_P2;Temp;Humidity;BMP_temperature;BMP_pressure;BME280_temperature;BME280_humidity;BME280_pressure;Samples;Min_cycle;Max_cycle;Signal;HPM_P1;HPM_P2
2021/06/10 00:00:34;;;;;;;12.82;4.28;;;;;;;18.38;52.94;101826.13;5068641;28;20048;-66
2021/06/10 00:03:01;;;;;;;14.40;4.75;;;;;;;18.36;53.23;101824.63;5071875;28;20087;-66
2021/06/10 00:05:28;;;;;;;14.07;4.10;;;;;;;18.32;53.81;101817.94;5089765;28;20044;-66
2021/06/10 00:07:55;;;;;;;12.98;4.38;;;;;;;18.28;53.14;101822.84;5089640;28;20135;-66
2021/06/10 00:10:23;;;;;;;11.90;4.63;;;;;;;18.27;53.24;101823.84;5089536;28;20459;-66
2021/06/10 00:12:52;;;;;;;11.13;4.47;;;;;;;18.21;53.03;101820.03;5055641;28;20490;-67
2021/06/10 00:15:25;;;;;;;14.27;4.20;;;;;;;18.19;53.55;101832.81;5069708;28;20040;-67
2021/06/10 00:17:52;;;;;;;13.93;4.63;;;;;;;18.11;53.89;101829.34;5069388;28;20045;-67
2021/06/10 00:20:21;;;;;;;13.95;4.15;;;;;;;18.06;54.34;101829.03;5068459;28;20056;-67
2021/06/10 00:22:48;;;;;;;16.02;4.70;;;;;;;18.04;54.19;101831.88;5068391;28;20555;-67
2021/06/10 00:25:15;;;;;;;14.52;4.72;;;;;;;17.99;54.21;101828.88;5069607;28;20127;-67
2021/06/10 00:27:42;;;;;;;14.05;4.68;;;;;;;17.94;54.87;101834.78;5051731;28;20051;-67
2021/06/10 00:30:15;;;;;;;10.45;4.55;;;;;;;17.84;55.03;101826.94;5068457;28;20432;-67
2021/06/10 00:32:44;;;;;;;11.65;4.60;;;;;;;17.84;55.68;101829.63;5051797;28;20486;-67
2021/06/10 00:35:12;;;;;;;16.60;4.90;;;;;;;17.75;56.40;101827.97;5067607;28;20075;-67
2021/06/10 00:37:39;;;;;;;11.35;4.40;;;;;;;17.78;56.41;101835.69;5069170;28;20045;-67
2021/06/10 00:40:08;;;;;;;12.75;5.03;;;;;;;17.81;56.37;101831.81;5069339;28;20040;-66
2021/06/10 00:42:35;;;;;;;13.23;4.97;;;;;;;17.79;56.21;101836.50;5067928;28;20041;-66
2021/06/10 00:45:06;;;;;;;11.20;4.70;;;;;;;17.79;56.58;101837.38;5067968;28;20045;-68
2021/06/10 00:47:33;;;;;;;11.88;5.05;;;;;;;17.84;57.47;101835.00;5068894;28;20040;-67
2021/06/10 00:50:00;;;;;;;15.65;4.70;;;;;;;17.86;56.53;101840.19;5068629;28;20041;-67
2021/06/10 00:52:27;;;;;;;12.60;4.47;;;;;;;17.81;56.96;101829.97;5068731;28;20044;-67
2021/06/10 00:54:53;;;;;;;12.05;4.75;;;;;;;17.79;58.26;101828.44;5068998;28;20123;-67
2021/06/10 00:57:20;;;;;;;11.90;4.88;;;;;;;17.75;58.37;101825.28;5051047;28;20044;-67
2021/06/10 00:59:47;;;;;;;13.75;4.85;;;;;;;17.73;58.42;101824.63;5067697;28;20047;-67
2021/06/10 01:02:14;;;;;;;12.10;4.63;;;;;;;17.70;58.61;101830.38;5066667;28;20044;-67
2021/06/10 01:04:41;;;;;;;11.80;4.82;;;;;;;17.69;59.04;101833.22;5053214;28;20044;-67
2021/06/10 01:07:16;;;;;;;14.10;5.72;;;;;;;17.60;58.95;101827.03;5054363;28;20049;-67
2021/06/10 01:09:48;;;;;;;12.48;5.50;;;;;;;17.56;59.38;101831.91;5038007;28;20055;-67
2021/06/10 01:12:40;;;;;;;16.55;5.53;;;;;;;17.54;58.22;101828.56;5034218;28;20049;-67
2021/06/10 01:15:11;;;;;;;14.88;5.63;;;;;;;17.53;58.12;101826.88;5035565;28;20053;-67
2021/06/10 01:17:42;;;;;;;14.70;5.55;;;;;;;17.52;58.63;101827.06;5034933;28;20498;-67
2021/06/10 01:20:17;;;;;;;15.88;6.13;;;;;;;17.48;58.27;101820.38;5035422;28;20060;-67
2021/06/10 01:23:25;;;;;;;13.77;5.70;;;;;;;17.43;58.91;101819.06;5033956;28;20037;-67
2021/06/10 01:26:32;;;;;;;11.80;5.43;;;;;;;17.40;59.10;101818.56;5050493;28;20049;-68
2021/06/10 01:29:02;;;;;;;17.73;6.30;;;;;;;17.36;59.57;101820.75;5035115;28;20041;-67
2021/06/10 01:31:31;;;;;;;13.73;6.47;;;;;;;17.37;59.39;101818.91;5034528;28;20371;-67
2021/06/10 01:34:03;;;;;;;15.48;6.40;;;;;;;17.39;59.33;101814.19;5046934;28;20432;-67
2021/06/10 01:36:33;;;;;;;14.32;6.53;;;;;;;17.41;60.42;101821.09;5055176;28;20037;-68
2021/06/10 01:39:05;;;;;;;15.68;6.35;;;;;;;17.39;59.11;101812.38;5053206;28;20104;-68
2021/06/10 01:41:33;;;;;;;13.52;6.45;;;;;;;17.41;59.07;101805.00;5054762;28;20069;-68
2021/06/10 01:44:01;;;;;;;18.67;6.15;;;;;;;17.41;59.53;101807.66;5053443;28;20041;-68
2021/06/10 01:46:31;;;;;;;14.68;6.88;;;;;;;17.46;60.12;101808.00;5054481;28;20092;-68
2021/06/10 01:48:59;;;;;;;13.50;5.80;;;;;;;17.33;59.60;101805.00;5054638;28;20498;-68
2021/06/10 01:51:29;;;;;;;12.93;6.57;;;;;;;17.34;59.63;101809.38;5054300;28;20049;-68
2021/06/10 01:54:01;;;;;;;13.93;6.20;;;;;;;17.40;59.48;101803.31;5054865;28;20107;-68
2021/06/10 01:56:30;;;;;;;12.43;6.03;;;;;;;17.41;60.06;101806.84;5054206;28;20103;-67
2021/06/10 01:58:58;;;;;;;16.23;6.80;;;;;;;17.38;60.50;101799.13;5036790;28;20436;-67
2021/06/10 02:01:26;;;;;;;19.23;6.38;;;;;;;17.34;61.13;101801.31;5054363;28;20128;-68
2021/06/10 02:03:54;;;;;;;12.88;6.28;;;;;;;17.29;61.94;101795.63;5054576;28;20049;-68
2021/06/10 02:06:22;;;;;;;12.60;6.00;;;;;;;17.30;61.76;101801.81;5074094;28;20520;-68
2021/06/10 02:08:51;;;;;;;15.70;6.22;;;;;;;17.26;61.35;101795.97;5072618;28;20041;-68
2021/06/10 02:11:18;;;;;;;12.65;6.28;;;;;;;17.31;60.99;101800.84;5069398;28;20064;-68
2021/06/10 02:13:48;;;;;;;13.98;5.93;;;;;;;17.28;60.92;101799.31;5052975;28;20043;-68
2021/06/10 02:16:18;;;;;;;12.57;5.85;;;;;;;17.24;60.96;101798.00;5053304;28;20057;-68
2021/06/10 02:18:48;;;;;;;13.63;6.43;;;;;;;17.21;61.51;101790.31;5036545;28;20043;-68
2021/06/10 02:21:16;;;;;;;13.73;5.85;;;;;;;17.20;61.55;101797.50;5053061;28;20044;-68
2021/06/10 02:23:45;;;;;;;11.35;5.72;;;;;;;17.19;62.03;101797.66;5052619;28;20037;-68
2021/06/10 02:26:13;;;;;;;12.60;6.25;;;;;;;17.16;63.02;101798.88;5053070;28;20171;-68
2021/06/10 02:28:40;;;;;;;15.20;6.28;;;;;;;17.16;62.28;101793.50;5020148;28;20132;-68
2021/06/10 02:31:09;;;;;;;14.40;6.25;;;;;;;17.16;62.86;101804.22;5052085;28;20461;-68
2021/06/10 02:33:37;;;;;;;13.02;6.65;;;;;;;17.17;63.80;101805.06;5049318;28;20049;-68
2021/06/10 02:36:08;;;;;;;11.65;6.43;;;;;;;17.16;64.15;101806.06;5033776;28;20045;-68
2021/06/10 02:38:39;;;;;;;13.07;6.20;;;;;;;17.16;64.89;101804.22;5033921;28;20049;-68
2021/06/10 02:41:09;;;;;;;10.20;6.40;;;;;;;17.15;65.36;101804.41;5034029;28;20049;-68
2021/06/10 02:43:38;;;;;;;18.40;6.85;;;;;;;17.10;65.62;101810.28;5033840;28;20128;-68
2021/06/10 02:46:05;;;;;;;17.02;7.07;;;;;;;17.07;65.73;101803.41;5033793;28;20056;-68
2021/06/10 02:48:33;;;;;;;14.15;6.88;;;;;;;17.13;66.24;101804.56;5033519;28;20045;-68
2021/06/10 02:51:01;;;;;;;14.00;6.63;;;;;;;17.12;66.41;101807.41;5033315;28;20038;-68
2021/06/10 02:53:30;;;;;;;13.68;6.85;;;;;;;17.11;65.46;101800.38;5032310;28;20124;-68
2021/06/10 02:56:01;;;;;;;14.00;6.57;;;;;;;17.13;65.63;101795.69;5033666;28;20091;-68
2021/06/10 02:58:31;;;;;;;13.48;6.70;;;;;;;17.04;66.62;101800.22;5032378;28;20041;-68
2021/06/10 03:00:59;;;;;;;13.50;6.60;;;;;;;16.99;66.98;101798.06;5031595;28;20052;-68
2021/06/10 03:03:27;;;;;;;11.95;6.80;;;;;;;16.99;67.02;101795.41;5032035;28;20042;-68
2021/06/10 03:05:57;;;;;;;16.75;6.80;;;;;;;16.94;66.77;101792.38;5032055;28;20072;-68
2021/06/10 03:08:25;;;;;;;16.42;7.00;;;;;;;16.96;66.63;101797.56;5033490;28;20517;-68
2021/06/10 03:10:57;;;;;;;17.77;6.88;;;;;;;16.93;67.45;101797.91;5015896;28;20124;-68
2021/06/10 03:13:24;;;;;;;;;;;;;;;16.83;68.01;101795.44;5033524;28;20045;-68
2021/06/10 03:15:52;;;;;;;14.40;6.63;;;;;;;16.83;67.93;101803.47;5015785;28;19925;-68
2021/06/10 03:18:21;;;;;;;13.65;6.72;;;;;;;16.78;68.14;101800.41;5033106;28;20421;-68
2021/06/10 03:20:49;;;;;;;14.45;6.80;;;;;;;16.70;68.55;101806.63;5033228;28;20442;-68
2021/06/10 03:23:17;;;;;;;14.38;7.40;;;;;;;16.68;68.50;101805.94;5032005;28;20124;-68
2021/06/10 03:25:44;;;;;;;17.05;6.93;;;;;;;16.67;68.78;101794.38;5032865;28;20048;-67
2021/06/10 03:28:11;;;;;;;13.45;7.05;;;;;;;16.59;68.46;101801.59;5032623;28;20099;-67
2021/06/10 03:30:38;;;;;;;13.57;7.35;;;;;;;16.50;68.74;101800.78;5038782;28;20068;-67
2021/06/10 03:33:06;;;;;;;14.60;7.65;;;;;;;16.48;68.80;101798.25;5051573;28;20115;-68
2021/06/10 03:35:35;;;;;;;17.80;7.85;;;;;;;16.43;68.73;101802.44;5052894;28;20452;-68
2021/06/10 03:38:04;;;;;;;14.48;7.25;;;;;;;16.43;68.79;101799.78;5052854;28;20124;-68
2021/06/10 03:40:32;;;;;;;13.38;7.80;;;;;;;16.38;68.86;101805.59;5051713;28;20145;-68
2021/06/10 03:43:02;;;;;;;17.77;8.50;;;;;;;16.36;69.27;101798.75;5052542;28;20141;-67
2021/06/10 03:45:29;;;;;;;13.80;7.85;;;;;;;16.35;68.33;101794.41;5051665;28;20045;-67
2021/06/10 03:47:56;;;;;;;15.85;7.80;;;;;;;16.28;69.17;101794.22;5018817;28;20049;-67
2021/06/10 03:50:29;;;;;;;14.40;8.00;;;;;;;16.24;68.70;101800.91;5051555;28;20086;-67
2021/06/10 03:52:56;;;;;;;15.10;8.18;;;;;;;16.17;69.70;101795.41;5051320;28;20418;-68
2021/06/10 03:55:23;;;;;;;15.18;7.72;;;;;;;16.17;69.74;101799.91;5051211;28;20120;-68
2021/06/10 03:57:50;;;;;;;14.30;8.18;;;;;;;16.18;69.33;101796.22;5034949;28;20041;-68
2021/06/10 04:00:17;;;;;;;18.08;8.50;;;;;;;16.18;69.80;101802.41;5035032;28;20049;-68
2021/06/10 04:02:44;;;;;;;13.30;7.70;;;;;;;16.17;69.16;101792.72;5050745;28;20040;-68
2021/06/10 04:05:11;;;;;;;16.77;8.27;;;;;;;16.17;69.25;101795.41;5058316;28;20070;-68
2021/06/10 04:07:38;;;;;;;18.65;8.27;;;;;;;16.18;69.88;101798.91;5072433;28;20373;-68
2021/06/10 04:10:06;;;;;;;19.08;8.30;;;;;;;16.21;69.48;101790.53;5071117;28;20048;-68
2021/06/10 04:12:33;;;;;;;18.60;8.30;;;;;;;16.22;69.12;101785.00;5058755;28;20139;-68
2021/06/10 04:15:00;;;;;;;15.30;8.35;;;;;;;16.18;69.56;101790.88;5051202;28;20077;-68
2021/06/10 04:17:27;;;;;;;14.27;8.70;;;;;;;16.21;68.89;101787.84;5038774;28;20091;-68
2021/06/10 04:19:53;;;;;;;17.63;8.52;;;;;;;16.20;68.85;101788.88;5052488;28;20045;-68
2021/06/10 04:22:20;;;;;;;17.20;8.43;;;;;;;16.22;68.92;101785.00;5034626;28;20037;-68
2021/06/10 04:24:47;;;;;;;15.15;8.32;;;;;;;16.22;69.18;101787.69;5052302;28;20141;-68
2021/06/10 04:27:14;;;;;;;14.20;8.60;;;;;;;16.25;69.63;101783.84;5052137;28;20452;-68
2021/06/10 04:29:40;;;;;;;16.70;8.50;;;;;;;16.27;69.11;101793.38;5052213;28;20628;-68
2021/06/10 04:32:08;;;;;;;16.25;8.48;;;;;;;16.32;68.26;101792.91;5050362;28;20501;-68
2021/06/10 04:34:34;;;;;;;15.63;8.77;;;;;;;16.29;68.32;101795.91;5051204;28;20083;-68
2021/06/10 04:37:01;;;;;;;17.23;8.10;;;;;;;16.26;68.89;101804.25;5051966;28;20041;-68
2021/06/10 04:39:28;;;;;;;17.40;8.80;;;;;;;16.24;68.99;101807.09;5055202;28;20041;-68
2021/06/10 04:41:55;;;;;;;16.23;8.70;;;;;;;16.25;69.10;101800.75;5055932;28;20098;-68
2021/06/10 04:44:22;;;;;;;17.50;8.98;;;;;;;16.25;68.02;101799.91;5056360;28;20033;-68
2021/06/10 04:46:49;;;;;;;13.30;8.68;;;;;;;16.27;68.67;101806.75;5055810;28;20049;-68
2021/06/10 04:49:16;;;;;;;18.75;9.45;;;;;;;16.28;68.61;101796.88;5055928;28;20493;-68
2021/06/10 04:51:43;;;;;;;15.45;8.75;;;;;;;16.33;67.70;101807.94;5055365;28;20049;-68
2021/06/10 04:54:10;;;;;;;15.93;9.27;;;;;;;16.36;67.85;101799.59;5055858;28;20068;-68
2021/06/10 04:56:37;;;;;;;17.13;9.02;;;;;;;16.36;68.11;101796.91;5055468;28;20472;-67
2021/06/10 04:59:03;;;;;;;16.55;8.60;;;;;;;16.40;67.50;101800.09;5055711;28;20128;-68
2021/06/10 05:01:30;;;;;;;19.15;9.65;;;;;;;16.44;66.70;101799.56;5052866;28;20087;-68
2021/06/10 05:03:57;;;;;;;14.60;8.50;;;;;;;16.48;66.16;101795.56;5054405;28;20060;-68
2021/06/10 05:06:24;;;;;;;20.73;9.50;;;;;;;16.54;66.13;101804.78;5055048;28;20571;-68
2021/06/10 05:08:51;;;;;;;24.98;9.20;;;;;;;16.63;65.61;101802.94;5054461;28;20049;-68
2021/06/10 05:11:17;;;;;;;15.27;8.93;;;;;;;16.66;65.53;101806.13;5054278;28;20052;-69
2021/06/10 05:13:44;;;;;;;17.50;9.27;;;;;;;16.72;65.35;101804.63;5055409;28;20037;-68
2021/06/10 05:16:11;;;;;;;19.10;9.18;;;;;;;16.71;65.61;101808.28;5054259;28;20041;-67
2021/06/10 05:18:38;;;;;;;18.33;9.07;;;;;;;16.74;64.90;101807.97;5055077;28;20493;-68
2021/06/10 05:21:06;;;;;;;19.63;9.25;;;;;;;16.83;61.24;101798.94;5038000;28;20505;-68
2021/06/10 05:23:33;;;;;;;18.55;9.40;;;;;;;16.87;63.09;101804.78;5037835;28;20041;-68
2021/06/10 05:26:00;;;;;;;24.80;11.07;;;;;;;16.91;62.72;101797.25;5053905;28;20048;-68
2021/06/10 05:28:33;;;;;;;19.90;10.25;;;;;;;16.95;62.86;101806.63;5055014;28;20049;-67
2021/06/10 05:31:02;;;;;;;17.73;8.80;;;;;;;16.95;62.94;101802.09;5052969;28;20486;-68
2021/06/10 05:33:29;;;;;;;18.67;8.73;;;;;;;17.02;63.00;101805.75;5053842;28;20505;-68
2021/06/10 05:35:56;;;;;;;13.85;7.95;;;;;;;17.09;59.69;101805.91;5054945;28;20075;-68
2021/06/10 05:38:22;;;;;;;15.52;9.15;;;;;;;17.13;60.73;101806.41;5037190;28;20045;-68
2021/06/10 05:40:50;;;;;;;17.92;8.05;;;;;;;17.20;62.51;101812.75;5053615;28;20146;-68
2021/06/10 05:43:17;;;;;;;13.57;7.88;;;;;;;17.22;62.48;101806.22;5037192;28;20049;-68
2021/06/10 05:45:44;;;;;;;13.43;7.82;;;;;;;17.24;61.95;101804.19;5053339;28;20164;-68
2021/06/10 05:48:12;;;;;;;19.00;8.13;;;;;;;17.26;61.68;101807.56;5054252;28;20049;-68
2021/06/10 05:50:39;;;;;;;16.52;8.05;;;;;;;17.32;61.75;101810.53;5053223;28;20068;-68
2021/06/10 05:53:06;;;;;;;16.75;7.55;;;;;;;17.36;62.74;101810.03;5036245;28;20517;-69
2021/06/10 05:55:33;;;;;;;15.00;7.35;;;;;;;17.39;61.79;101807.00;5054325;28;20195;-68
2021/06/10 05:58:00;;;;;;;20.15;7.63;;;;;;;17.45;61.44;101803.63;5052634;28;20447;-68
2021/06/10 06:00:27;;;;;;;15.10;7.97;;;;;;;17.49;59.71;101803.28;5054113;28;20049;-68
2021/06/10 06:02:53;;;;;;;22.48;7.00;;;;;;;17.56;58.76;101812.31;5051649;28;20033;-68
2021/06/10 06:05:20;;;;;;;14.52;6.95;;;;;;;17.72;53.11;101811.38;5052954;28;20096;-68
2021/06/10 06:07:49;;;;;;;14.77;5.97;;;;;;;17.79;52.84;101802.47;5073773;28;20595;-68
2021/06/10 06:10:17;;;;;;;13.52;6.45;;;;;;;17.92;53.08;101815.34;5073024;28;20040;-68
2021/06/10 06:12:45;;;;;;;13.85;6.47;;;;;;;17.96;54.35;101811.28;5057409;28;20047;-68
2021/06/10 06:15:12;;;;;;;22.63;6.90;;;;;;;18.02;55.12;101809.75;5053235;28;20098;-68
2021/06/10 06:17:39;;;;;;;12.20;6.07;;;;;;;18.08;54.30;101814.44;5053896;28;20049;-68
2021/06/10 06:20:06;;;;;;;19.17;6.47;;;;;;;18.18;55.13;101819.56;5054039;28;20037;-67
2021/06/10 06:22:33;;;;;;;15.10;6.22;;;;;;;18.44;52.18;101821.88;5052771;28;20052;-67
2021/06/10 06:25:00;;;;;;;12.55;5.55;;;;;;;18.51;49.81;101813.94;5053879;28;20045;-68
2021/06/10 06:27:27;;;;;;;16.17;5.30;;;;;;;18.62;48.54;101818.88;5053458;28;20048;-68
2021/06/10 06:29:54;;;;;;;11.27;5.40;;;;;;;18.63;49.86;101815.19;5052739;28;20450;-68
2021/06/10 06:32:20;;;;;;;13.13;5.35;;;;;;;18.65;49.83;101818.53;5050790;28;20041;-68
2021/06/10 06:34:47;;;;;;;15.02;5.32;;;;;;;18.67;51.28;101821.84;5053796;28;20071;-68
2021/06/10 06:37:15;;;;;;;15.23;6.18;;;;;;;18.68;50.58;101823.53;5052340;28;20577;-68
2021/06/10 06:39:42;;;;;;;17.45;5.43;;;;;;;18.84;50.51;101829.81;5035951;28;20047;-68
2021/06/10 06:42:09;;;;;;;19.65;5.65;;;;;;;18.96;48.78;101821.13;5044144;28;20049;-68
2021/06/10 06:44:36;;;;;;;12.75;4.93;;;;;;;18.94;52.02;101822.31;5052250;28;20086;-68
2021/06/10 06:47:03;;;;;;;12.85;5.50;;;;;;;18.91;54.03;101828.06;5052330;28;20116;-68
2021/06/10 06:49:29;;;;;;;13.38;6.30;;;;;;;18.88;54.76;101823.91;5052286;28;20061;-68
2021/06/10 06:51:56;;;;;;;11.35;6.30;;;;;;;18.83;54.33;101820.91;5018179;28;20407;-68
2021/06/10 06:54:24;;;;;;;17.45;5.70;;;;;;;18.92;51.37;101827.88;5042543;28;20033;-68
2021/06/10 06:56:51;;;;;;;18.55;5.57;;;;;;;18.93;54.28;101832.22;5025243;28;20044;-68
2021/06/10 06:59:18;;;;;;;12.32;5.38;;;;;;;18.96;53.75;101836.41;5050983;28;20135;-68
2021/06/10 07:01:45;;;;;;;12.98;5.00;;;;;;;18.94;53.70;101835.78;5050248;28;20053;-68
2021/06/10 07:04:12;;;;;;;16.23;4.43;;;;;;;19.10;47.97;101834.75;5052135;28;20037;-68
2021/06/10 07:06:39;;;;;;;12.35;4.10;;;;;;;19.04;49.88;101828.25;5051743;28;20458;-68
2021/06/10 07:09:06;;;;;;;12.00;4.85;;;;;;;19.12;50.72;101838.94;5052136;28;20045;-68
2021/06/10 07:11:35;;;;;;;10.50;4.93;;;;;;;19.14;50.94;101841.44;5050482;28;20087;-68
2021/06/10 07:14:03;;;;;;;16.35;5.20;;;;;;;19.14;51.51;101847.66;5051060;28;20060;-68
2021/06/10 07:16:30;;;;;;;16.85;5.45;;;;;;;19.23;52.00;101843.03;5050592;28;20456;-68
2021/06/10 07:18:58;;;;;;;13.65;5.32;;;;;;;19.64;48.75;101841.72;5051509;28;20041;-68
2021/06/10 07:21:24;;;;;;;19.83;4.97;;;;;;;19.55;48.19;101847.22;5030526;28;20044;-68
2021/06/10 07:23:52;;;;;;;14.05;5.68;;;;;;;19.55;49.33;101844.53;5048505;28;20045;-68
2021/06/10 07:26:19;;;;;;;14.18;5.50;;;;;;;19.65;50.46;101846.09;5049060;28;20044;-67
2021/06/10 07:28:46;;;;;;;16.13;5.28;;;;;;;19.66;51.33;101835.09;5052990;28;20041;-68
2021/06/10 07:31:13;;;;;;;13.63;5.40;;;;;;;19.69;49.77;101855.44;5032292;28;20045;-68
2021/06/10 07:33:40;;;;;;;14.88;4.75;;;;;;;19.74;49.97;101847.69;5051777;28;20045;-68
2021/06/10 07:36:07;;;;;;;14.00;5.28;;;;;;;19.89;49.91;101853.88;5050394;28;20102;-66
2021/06/10 07:38:34;;;;;;;12.73;6.28;;;;;;;20.28;48.18;101847.28;5051551;28;20045;-68
2021/06/10 07:41:01;;;;;;;19.27;5.50;;;;;;;20.26;48.79;101843.91;5052552;28;20037;-67
2021/06/10 07:43:27;;;;;;;14.07;4.53;;;;;;;20.17;47.89;101842.34;5052049;28;20037;-67
2021/06/10 07:45:54;;;;;;;10.52;4.53;;;;;;;20.23;48.61;101847.00;5051107;28;20418;-67
2021/06/10 07:48:21;;;;;;;17.40;5.28;;;;;;;20.23;48.47;101848.84;5050972;28;20502;-67
2021/06/10 07:50:48;;;;;;;11.85;4.55;;;;;;;20.41;45.64;101835.78;5050815;28;20052;-68
2021/06/10 07:53:15;;;;;;;11.75;3.80;;;;;;;20.30;45.55;101839.81;5051136;28;20041;-69
2021/06/10 07:55:42;;;;;;;8.85;3.70;;;;;;;20.33;46.27;101835.91;5049717;28;20121;-68
2021/06/10 07:58:09;;;;;;;11.20;4.10;;;;;;;20.38;48.32;101840.72;5045310;28;20052;-69
2021/06/10 08:00:36;;;;;;;8.15;4.47;;;;;;;20.65;45.68;101837.28;5048818;28;20049;-69
2021/06/10 08:03:03;;;;;;;9.32;3.92;;;;;;;20.77;46.02;101839.44;5051213;28;20049;-69
2021/06/10 08:05:30;;;;;;;11.05;3.97;;;;;;;20.91;44.99;101843.91;5029456;28;20038;-69
2021/06/10 08:07:58;;;;;;;14.48;4.30;;;;;;;20.98;44.96;101838.56;5066945;28;20041;-69
2021/06/10 08:10:26;;;;;;;11.48;3.95;;;;;;;20.94;45.17;101843.53;5041215;28;20091;-69
2021/06/10 08:12:53;;;;;;;7.80;3.60;;;;;;;20.98;46.75;101841.25;5049701;28;20041;-68
2021/06/10 08:15:21;;;;;;;11.23;3.25;;;;;;;21.00;44.70;101836.50;5055027;28;20444;-69
2021/06/10 08:17:48;;;;;;;9.57;3.00;;;;;;;21.02;44.64;101840.66;5054437;28;20044;-70
2021/06/10 08:20:18;;;;;;;9.07;3.08;;;;;;;21.13;43.96;101841.97;5054188;28;20053;-69
2021/06/10 08:22:45;;;;;;;12.27;3.38;;;;;;;21.08;42.65;101847.97;5056023;28;20041;-69
2021/06/10 08:25:13;;;;;;;11.02;3.42;;;;;;;21.19;42.53;101843.03;5055172;28;20037;-69
2021/06/10 08:27:40;;;;;;;11.50;3.88;;;;;;;21.31;43.27;101844.16;5055036;28;20041;-69
2021/06/10 08:30:08;;;;;;;11.95;4.05;;;;;;;21.50;44.60;101842.63;5053298;28;20132;-69
2021/06/10 08:32:35;;;;;;;13.90;5.20;;;;;;;21.74;44.70;101845.84;5052819;28;20680;-69
2021/06/10 08:35:03;;;;;;;14.77;5.57;;;;;;;21.96;45.27;101842.00;5049229;28;20033;-68
2021/06/10 08:37:31;;;;;;;18.13;6.90;;;;;;;22.08;43.07;101836.81;5052922;28;20090;-68
2021/06/10 08:39:58;;;;;;;15.55;6.32;;;;;;;22.09;43.65;101846.59;5056072;28;20124;-69
2021/06/10 08:42:25;;;;;;;15.55;5.93;;;;;;;22.07;44.10;101845.16;5047383;28;20037;-68
2021/06/10 08:44:53;;;;;;;13.90;6.50;;;;;;;22.23;43.10;101848.31;5051244;28;20048;-70
2021/06/10 08:47:21;;;;;;;12.85;5.93;;;;;;;22.13;43.92;101845.16;5035701;28;20444;-69
2021/06/10 08:49:49;;;;;;;15.02;6.90;;;;;;;22.32;44.70;101848.13;5053452;28;20123;-69
2021/06/10 08:52:16;;;;;;;14.15;5.72;;;;;;;22.34;44.31;101848.75;5052443;28;20052;-69
2021/06/10 08:54:43;;;;;;;21.80;6.43;;;;;;;22.24;42.94;101849.13;5052490;28;20037;-69
2021/06/10 08:57:10;;;;;;;15.60;5.55;;;;;;;22.43;42.31;101848.38;5053950;28;20052;-69
2021/06/10 08:59:39;;;;;;;13.45;5.30;;;;;;;22.38;44.36;101847.31;5053153;28;20095;-69
2021/06/10 09:02:09;;;;;;;13.55;4.65;;;;;;;22.62;42.23;101844.00;5046600;28;20075;-69
2021/06/10 09:04:36;;;;;;;14.80;5.03;;;;;;;22.71;42.31;101844.63;5070129;28;20047;-70
2021/06/10 09:07:04;;;;;;;12.82;5.15;;;;;;;22.77;41.63;101845.66;5031822;28;20051;-69
2021/06/10 09:09:37;;;;;;;11.43;5.53;;;;;;;23.01;40.60;101849.59;5050758;28;20136;-69
2021/06/10 09:12:07;;;;;;;18.45;4.88;;;;;;;22.95;41.76;101851.28;5054354;28;20045;-69
2021/06/10 09:14:56;;;;;;;14.77;4.68;;;;;;;23.13;40.55;101849.84;5034745;28;20042;-69
2021/06/10 09:17:36;;;;;;;12.02;5.40;;;;;;;23.07;39.49;101856.09;5027695;28;20060;-69
2021/06/10 09:23:17;;;;;;;11.15;5.00;;;;;;;23.14;40.16;101856.91;5078291;28;20477;-69
2021/06/10 09:25:58;;;;;;;10.55;4.70;;;;;;;23.31;40.24;101860.00;5065994;28;20138;-69
2021/06/10 09:28:31;;;;;;;12.13;5.18;;;;;;;23.39;39.33;101851.63;5050993;28;20128;-69
2021/06/10 09:30:59;;;;;;;11.02;4.95;;;;;;;23.36;40.68;101849.38;5064559;28;20052;-69
2021/06/10 09:33:39;;;;;;;15.00;5.40;;;;;;;23.55;39.55;101861.19;5068469;28;20127;-69
2021/06/10 09:36:07;;;;;;;9.93;5.53;;;;;;;23.57;39.16;101859.91;5069302;28;20045;-69
2021/06/10 09:38:33;;;;;;;11.10;5.00;;;;;;;23.52;40.01;101856.19;5066090;28;20037;-68
2021/06/10 09:41:03;;;;;;;15.15;5.63;;;;;;;23.48;38.98;101865.78;5066121;28;20033;-69
2021/06/10 09:43:47;;;;;;;14.27;5.22;;;;;;;23.50;41.04;101853.72;5068678;28;20079;-69
2021/06/10 09:46:14;;;;;;;12.68;5.13;;;;;;;23.63;42.68;101860.97;5065942;28;20037;-69
2021/06/10 09:48:41;;;;;;;15.15;5.47;;;;;;;23.80;40.17;101847.78;5047055;28;20514;-68
2021/06/10 09:51:24;;;;;;;15.65;4.78;;;;;;;23.94;39.75;101859.41;5066562;28;20037;-69
2021/06/10 09:53:51;;;;;;;16.27;4.95;;;;;;;23.93;40.73;101866.69;5066801;28;20055;-68
2021/06/10 09:56:19;;;;;;;11.65;4.68;;;;;;;24.02;40.01;101867.25;5066697;28;20416;-69
2021/06/10 09:58:53;;;;;;;13.00;5.10;;;;;;;24.04;39.91;101864.34;5036491;28;20422;-69
2021/06/10 10:01:22;;;;;;;14.25;5.07;;;;;;;23.98;40.33;101862.47;5030350;28;20051;-68
2021/06/10 10:03:51;;;;;;;11.10;4.85;;;;;;;24.17;39.43;101861.53;5048740;28;20077;-68
2021/06/10 10:06:24;;;;;;;13.18;5.00;;;;;;;24.19;40.08;101872.19;5047321;28;20045;-68
2021/06/10 10:08:55;;;;;;;13.02;5.47;;;;;;;24.42;38.63;101864.31;5083409;28;20044;-70
2021/06/10 10:11:23;;;;;;;14.88;5.00;;;;;;;24.37;39.71;101874.16;5088541;28;20067;-69
2021/06/10 10:13:52;;;;;;;13.32;5.20;;;;;;;24.56;38.50;101858.81;5071137;28;20519;-70
2021/06/10 10:16:22;;;;;;;14.40;5.07;;;;;;;24.48;38.32;101865.31;5071163;28;20139;-69
2021/06/10 10:18:51;;;;;;;14.18;4.82;;;;;;;24.46;38.03;101859.28;5087441;28;20068;-70
2021/06/10 10:21:25;;;;;;;15.25;4.90;;;;;;;24.46;38.30;101860.09;5063276;28;20510;-70
2021/06/10 10:23:55;;;;;;;13.77;5.43;;;;;;;24.32;38.19;101855.81;5047408;28;20052;-70
2021/06/10 10:26:22;;;;;;;22.30;4.68;;;;;;;24.52;39.21;101848.44;5047140;28;20041;-69
2021/06/10 10:28:50;;;;;;;12.40;4.90;;;;;;;24.62;40.03;101847.91;5048553;28;20136;-69
2021/06/10 10:31:17;;;;;;;12.02;4.10;;;;;;;24.74;38.14;101848.03;5047210;28;20462;-70
2021/06/10 10:33:46;;;;;;;10.77;4.80;;;;;;;24.75;38.57;101843.44;4988698;28;20081;-70
2021/06/10 10:36:43;;;;;;;11.27;4.60;;;;;;;24.81;39.08;101839.81;5017738;28;20045;-70
2021/06/10 10:39:11;;;;;;;14.10;4.63;;;;;;;25.03;37.77;101834.81;5035046;28;20045;-69
2021/06/10 10:41:55;;;;;;;12.52;3.75;;;;;;;25.18;39.68;101839.91;5032988;28;20061;-70
2021/06/10 10:44:30;;;;;;;11.98;4.60;;;;;;;25.24;38.29;101836.31;5036737;28;20073;-70
2021/06/10 10:49:51;;;;;;;11.45;4.50;;;;;;;25.16;38.33;101829.25;5101878;27;20126;-69
2021/06/10 10:54:54;;;;;;;15.30;4.97;;;;;;;25.35;37.94;101834.72;5097166;27;20432;-70
2021/06/10 10:57:38;;;;;;;11.68;5.10;;;;;;;25.47;37.49;101825.59;5080744;28;20040;-69
2021/06/10 11:00:08;;;;;;;19.33;4.70;;;;;;;25.46;38.21;101823.91;5088781;28;20554;-69
2021/06/10 11:02:39;;;;;;;12.25;4.50;;;;;;;25.47;38.33;101833.75;5081190;28;20044;-69
2021/06/10 11:05:09;;;;;;;15.23;4.70;;;;;;;25.55;37.98;101832.59;5095339;28;20040;-69
2021/06/10 11:10:17;;;;;;;13.15;4.40;;;;;;;25.22;38.37;101825.63;5092994;27;20116;-69
2021/06/10 11:12:52;;;;;;;;;;;;;;;25.37;37.53;101819.84;5049820;28;20052;-70
2021/06/10 11:15:26;;;;;;;10.18;4.82;;;;;;;25.44;37.28;101820.59;5079106;28;19933;-69
2021/06/10 11:17:57;;;;;;;12.50;5.00;;;;;;;25.53;36.94;101815.69;5048473;28;20045;-70
2021/06/10 11:20:42;;;;;;;15.02;5.53;;;;;;;25.70;36.67;101810.47;5047345;28;20391;-70
2021/06/10 11:23:19;;;;;;;22.30;4.95;;;;;;;25.79;37.14;101808.25;5045322;28;20049;-70
2021/06/10 11:25:50;;;;;;;11.60;4.45;;;;;;;25.65;37.91;101800.28;5046800;28;20057;-70
2021/06/10 11:28:23;;;;;;;13.20;4.65;;;;;;;25.50;38.22;101789.00;5045998;28;20494;-70
2021/06/10 11:30:54;;;;;;;11.60;4.68;;;;;;;25.23;38.79;101792.00;5046607;28;20041;-70
2021/06/10 11:33:24;;;;;;;16.65;4.88;;;;;;;25.13;39.56;101802.56;5010687;28;20060;-70
2021/06/10 11:36:07;;;;;;;9.68;4.43;;;;;;;25.55;37.09;101801.91;5048987;28;20041;-69